Time;durP1;ratioP1;P1;durP2;ratioP2;P2;SDS_P1;SDS_P2;PMS_P1;PMS_P2;Temp;Humidity;BMP_temperature;BMP_pressure;BME280_temperature;BME280_humidity;BME280_pressure;Samples;Min_cycle;Max_cycle;Signal;HPM_P1;HPM_P2
2022/03/29 00:00:08;;;;;;;18.58;8.68;;;8.70;99.90;;;;;;4900317;29;20031;-83
2022/03/29 00:02:34;;;;;;;19.88;9.93;;;8.70;99.90;;;;;;4915275;29;20040;-84
2022/03/29 00:05:04;;;;;;;18.52;10.10;;;8.60;99.90;;;;;;4898498;29;20577;-82
2022/03/29 00:07:30;;;;;;;18.83;10.52;;;8.60;99.90;;;;;;4917551;29;20486;-83
2022/03/29 00:09:56;;;;;;;18.77;10.50;;;8.60;99.90;;;;;;4932725;29;20083;-84
2022/03/29 00:12:21;;;;;;;19.27;9.68;;;8.60;99.90;;;;;;4934435;29;20500;-83
2022/03/29 00:14:47;;;;;;;18.55;10.52;;;8.50;99.90;;;;;;4904421;29;20046;-83
2022/03/29 00:17:13;;;;;;;15.50;8.85;;;8.50;99.90;;;;;;4905116;29;20051;-83
2022/03/29 00:19:38;;;;;;;18.08;9.75;;;8.50;99.90;;;;;;4919634;29;20050;-83
2022/03/29 00:22:04;;;;;;;18.20;10.80;;;8.40;99.90;;;;;;4904052;29;20036;-83
2022/03/29 00:24:30;;;;;;;18.58;9.75;;;8.40;99.90;;;;;;4903567;29;20052;-83
2022/03/29 00:26:55;;;;;;;22.63;11.98;;;8.30;99.90;;;;;;4937290;29;20497;-83
2022/03/29 00:29:21;;;;;;;18.27;9.48;;;8.20;99.90;;;;;;4920118;29;20449;-83
2022/03/29 00:31:47;;;;;;;19.88;9.40;;;8.20;99.90;;;;;;4915940;29;20043;-83
2022/03/29 00:34:12;;;;;;;18.77;10.02;;;8.10;99.90;;;;;;4934461;29;20036;-83
2022/03/29 00:36:38;;;;;;;21.95;12.13;;;8.10;99.90;;;;;;4920841;29;20038;-82
2022/03/29 00:39:04;;;;;;;18.45;10.85;;;8.10;99.90;;;;;;4903644;29;20071;-83
2022/03/29 00:41:29;;;;;;;19.52;10.68;;;8.10;99.90;;;;;;4902963;29;20032;-84
2022/03/29 00:43:55;;;;;;;17.27;9.88;;;8.10;99.90;;;;;;4918738;29;20090;-83
2022/03/29 00:46:21;;;;;;;18.38;10.38;;;8.10;99.90;;;;;;4918961;29;20548;-83
2022/03/29 00:48:46;;;;;;;22.40;11.82;;;8.10;99.90;;;;;;4904306;29;20067;-83
2022/03/29 00:51:12;;;;;;;18.42;10.10;;;8.10;99.90;;;;;;4904255;29;20508;-83
2022/03/29 00:53:38;;;;;;;19.48;10.60;;;8.10;99.90;;;;;;4916283;29;20448;-82
2022/03/29 00:56:04;;;;;;;17.95;9.93;;;8.20;99.90;;;;;;4904606;29;20560;-83
2022/03/29 00:58:31;;;;;;;18.20;9.57;;;8.20;99.90;;;;;;4904106;29;20122;-83
2022/03/29 01:00:58;;;;;;;17.52;9.85;;;8.10;99.90;;;;;;4917475;29;20069;-84
2022/03/29 01:03:24;;;;;;;15.05;8.13;;;8.10;99.90;;;;;;4903923;29;20051;-83
2022/03/29 01:05:50;;;;;;;17.48;9.85;;;8.10;99.90;;;;;;4903182;29;20066;-83
2022/03/29 01:08:15;;;;;;;15.65;7.93;;;8.10;99.90;;;;;;4904829;29;20506;-82
2022/03/29 01:10:44;;;;;;;12.73;7.72;;;8.10;99.90;;;;;;4913393;29;20155;-83
2022/03/29 01:13:09;;;;;;;18.65;9.55;;;8.00;99.90;;;;;;4900225;29;20040;-83
2022/03/29 01:15:37;;;;;;;15.13;9.65;;;8.00;99.90;;;;;;4912828;29;20040;-83
2022/03/29 01:18:05;;;;;;;14.45;8.57;;;8.00;99.90;;;;;;4899506;29;20040;-83
2022/03/29 01:20:32;;;;;;;14.30;9.15;;;8.00;99.90;;;;;;4898529;29;20044;-83
2022/03/29 01:23:00;;;;;;;16.10;9.07;;;8.00;99.90;;;;;;4914642;29;20039;-83
2022/03/29 01:25:35;;;;;;;18.20;9.80;;;8.00;99.90;;;;;;4916079;29;20060;-83
2022/03/29 01:28:02;;;;;;;12.65;7.60;;;7.90;99.90;;;;;;4900215;29;20046;-83
2022/03/29 01:30:28;;;;;;;16.10;9.20;;;7.90;99.90;;;;;;4911564;29;20044;-83
2022/03/29 01:32:54;;;;;;;15.05;8.52;;;7.90;99.90;;;;;;4915655;29;20565;-83
2022/03/29 01:35:23;;;;;;;15.48;8.60;;;7.90;99.90;;;;;;4896904;29;20040;-83
2022/03/29 01:37:49;;;;;;;14.10;8.43;;;7.90;99.90;;;;;;4908873;29;20040;-83
2022/03/29 01:40:18;;;;;;;14.23;8.60;;;7.90;99.90;;;;;;4915316;29;20052;-83
2022/03/29 01:42:52;;;;;;;14.27;7.50;;;7.80;99.90;;;;;;4900818;29;20055;-83
2022/03/29 01:45:18;;;;;;;16.75;8.85;;;7.80;99.90;;;;;;4913052;29;20058;-83
2022/03/29 01:47:44;;;;;;;16.67;9.15;;;7.70;99.90;;;;;;4899758;29;20570;-83
2022/03/29 01:50:14;;;;;;;13.48;7.82;;;7.70;99.90;;;;;;4917462;29;20079;-85
2022/03/29 01:52:41;;;;;;;14.73;8.32;;;7.70;99.90;;;;;;4901519;29;20032;-83
2022/03/29 01:55:11;;;;;;;14.52;8.75;;;7.70;99.90;;;;;;4899492;29;20056;-83
2022/03/29 01:57:38;;;;;;;13.35;7.88;;;7.70;99.90;;;;;;4899670;29;20142;-83
2022/03/29 02:02:53;;;;;;;15.52;9.13;;;7.70;99.90;;;;;;4902438;29;20048;-82
2022/03/29 02:05:20;;;;;;;13.77;8.52;;;7.70;99.90;;;;;;4890151;29;20131;-83
2022/03/29 02:07:45;;;;;;;15.20;8.90;;;7.70;99.90;;;;;;4898375;29;20064;-83
2022/03/29 02:10:19;;;;;;;12.48;8.35;;;7.60;99.90;;;;;;4899948;29;20044;-83
2022/03/29 02:12:46;;;;;;;15.57;9.43;;;7.60;99.90;;;;;;4915343;29;20051;-83
2022/03/29 02:15:12;;;;;;;15.55;9.32;;;7.60;99.90;;;;;;4915531;29;20048;-84
2022/03/29 02:17:39;;;;;;;16.17;8.55;;;7.70;99.90;;;;;;4899538;29;20044;-83
2022/03/29 02:20:06;;;;;;;13.00;8.05;;;7.70;99.90;;;;;;4914538;29;20067;-83
2022/03/29 02:22:32;;;;;;;14.95;8.85;;;7.70;99.90;;;;;;4905826;29;20040;-83
2022/03/29 02:24:58;;;;;;;15.20;9.13;;;7.70;99.90;;;;;;4902901;29;20063;-83
2022/03/29 02:27:24;;;;;;;14.25;9.00;;;7.70;99.90;;;;;;4903691;29;20108;-83
2022/03/29 02:29:49;;;;;;;19.40;9.93;;;7.70;99.90;;;;;;4903153;29;20061;-83
2022/03/29 02:32:15;;;;;;;15.38;8.50;;;7.70;99.90;;;;;;4918041;29;20048;-83
2022/03/29 02:34:41;;;;;;;14.43;8.48;;;7.70;99.90;;;;;;4915950;29;20421;-83
2022/03/29 02:37:06;;;;;;;15.57;9.13;;;7.70;99.90;;;;;;4920392;29;20545;-83
2022/03/29 02:39:32;;;;;;;17.55;8.80;;;7.70;99.90;;;;;;4905426;29;20050;-83
2022/03/29 02:41:58;;;;;;;18.35;9.65;;;7.60;99.90;;;;;;4918680;29;20460;-83
2022/03/29 02:44:23;;;;;;;14.98;8.38;;;7.60;99.90;;;;;;4902584;29;20050;-83
2022/03/29 02:46:50;;;;;;;14.63;8.18;;;7.60;99.90;;;;;;4903362;29;20079;-83
2022/03/29 02:49:15;;;;;;;13.02;8.32;;;7.60;99.90;;;;;;4920073;29;20043;-83
2022/03/29 02:51:41;;;;;;;15.68;9.35;;;7.60;99.90;;;;;;4917536;29;20040;-82
2022/03/29 02:54:08;;;;;;;14.23;8.80;;;7.50;99.90;;;;;;4899445;29;20036;-83
2022/03/29 02:56:33;;;;;;;13.13;8.02;;;7.50;99.90;;;;;;4902079;29;20040;-83
2022/03/29 02:58:59;;;;;;;17.95;10.13;;;7.50;99.90;;;;;;4901374;29;20869;-83
2022/03/29 03:01:28;;;;;;;15.13;9.45;;;7.50;99.90;;;;;;4917867;29;20051;-82
2022/03/29 03:03:55;;;;;;;15.40;9.43;;;7.50;99.90;;;;;;4901324;29;20980;-82
2022/03/29 03:06:21;;;;;;;15.00;8.60;;;7.50;99.90;;;;;;4896394;29;20040;-83
2022/03/29 03:08:46;;;;;;;16.17;8.98;;;7.50;99.90;;;;;;4902209;29;20052;-83
2022/03/29 03:11:12;;;;;;;16.13;9.43;;;7.50;99.90;;;;;;4902542;29;20044;-83
2022/03/29 03:13:38;;;;;;;15.30;9.38;;;7.50;99.90;;;;;;4901614;29;20032;-83
2022/03/29 03:16:04;;;;;;;17.63;9.77;;;7.40;99.90;;;;;;4917487;29;20074;-83
2022/03/29 03:18:29;;;;;;;12.80;8.45;;;7.40;99.90;;;;;;4918134;29;20178;-83
2022/03/29 03:20:55;;;;;;;15.52;9.50;;;7.50;99.90;;;;;;4917550;29;20079;-83
2022/03/29 03:23:21;;;;;;;14.50;8.93;;;7.40;99.90;;;;;;4916537;29;20036;-83
2022/03/29 03:25:50;;;;;;;15.27;10.23;;;7.40;99.90;;;;;;4918943;29;20072;-83
2022/03/29 03:28:15;;;;;;;16.17;9.38;;;7.40;99.90;;;;;;4901201;29;20032;-83
2022/03/29 03:30:41;;;;;;;16.55;9.63;;;7.40;99.90;;;;;;4901059;29;20093;-83
2022/03/29 03:33:07;;;;;;;16.58;9.98;;;7.40;99.90;;;;;;4900098;29;20051;-83
2022/03/29 03:35:32;;;;;;;15.50;9.95;;;7.30;99.90;;;;;;4901700;29;20075;-83
2022/03/29 03:37:58;;;;;;;13.40;8.60;;;7.30;99.90;;;;;;4914852;29;20044;-83
2022/03/29 03:40:23;;;;;;;15.18;9.63;;;7.20;99.90;;;;;;4913976;29;20040;-82
2022/03/29 03:42:49;;;;;;;12.68;8.63;;;7.20;99.90;;;;;;4912549;29;20047;-83
2022/03/29 03:45:15;;;;;;;14.48;9.02;;;7.20;99.90;;;;;;4900686;29;20056;-83
2022/03/29 03:47:40;;;;;;;15.65;9.57;;;7.20;99.90;;;;;;4901235;29;20044;-83
2022/03/29 03:50:08;;;;;;;12.63;7.75;;;7.10;99.90;;;;;;4901994;29;20044;-83
2022/03/29 03:52:33;;;;;;;15.40;9.15;;;7.10;99.90;;;;;;4916324;29;20100;-83
2022/03/29 03:54:59;;;;;;;16.92;10.82;;;7.10;99.90;;;;;;4917545;29;20048;-83
2022/03/29 03:57:25;;;;;;;16.88;10.45;;;7.20;99.90;;;;;;4918651;29;20040;-83
2022/03/29 03:59:51;;;;;;;18.17;11.23;;;7.20;99.90;;;;;;4900196;29;20040;-83
2022/03/29 04:02:18;;;;;;;18.13;10.93;;;7.20;99.90;;;;;;4898728;29;20031;-83
2022/03/29 04:04:43;;;;;;;14.25;9.32;;;7.20;99.90;;;;;;4897535;29;20395;-83
2022/03/29 04:07:09;;;;;;;15.98;9.75;;;7.20;99.90;;;;;;4900244;29;20039;-83
2022/03/29 04:09:35;;;;;;;15.27;10.50;;;7.20;99.90;;;;;;4899771;29;20099;-83
2022/03/29 04:12:04;;;;;;;16.55;10.40;;;7.10;99.90;;;;;;4901076;29;20036;-83
2022/03/29 04:14:30;;;;;;;16.55;10.50;;;7.10;99.90;;;;;;4915625;29;20090;-83
2022/03/29 04:16:56;;;;;;;14.43;8.82;;;7.00;99.90;;;;;;4900268;29;20047;-83
2022/03/29 04:19:22;;;;;;;13.82;9.35;;;7.10;99.90;;;;;;4900331;29;20505;-83
2022/03/29 04:21:47;;;;;;;19.52;10.50;;;7.00;99.90;;;;;;4916558;29;20457;-83
2022/03/29 04:24:14;;;;;;;14.13;9.00;;;7.10;99.90;;;;;;4917492;29;20064;-83
2022/03/29 04:26:40;;;;;;;14.68;9.32;;;7.10;99.90;;;;;;4900555;29;20067;-82
2022/03/29 04:29:06;;;;;;;20.13;11.30;;;7.10;99.90;;;;;;4915829;29;20032;-83
2022/03/29 04:31:32;;;;;;;17.83;10.48;;;7.10;99.90;;;;;;4914437;29;20040;-83
2022/03/29 04:34:01;;;;;;;18.95;10.27;;;7.10;99.90;;;;;;4917021;29;20040;-83
2022/03/29 04:36:27;;;;;;;14.88;8.70;;;7.00;99.90;;;;;;4900608;29;20055;-82
2022/03/29 04:38:54;;;;;;;15.18;9.55;;;7.00;99.90;;;;;;4917131;29;20036;-83
2022/03/29 04:41:20;;;;;;;15.88;10.15;;;7.00;99.90;;;;;;4916835;29;20043;-83
2022/03/29 04:43:46;;;;;;;17.90;10.00;;;7.00;99.90;;;;;;4900482;29;21648;-82
2022/03/29 04:46:12;;;;;;;15.38;9.32;;;7.00;99.90;;;;;;4915874;29;20041;-82
2022/03/29 04:48:37;;;;;;;14.35;8.85;;;7.00;99.90;;;;;;4917014;29;20119;-83
2022/03/29 04:51:03;;;;;;;18.25;10.43;;;7.00;99.90;;;;;;4917654;29;20075;-82
2022/03/29 04:53:28;;;;;;;17.35;10.15;;;7.00;99.90;;;;;;4884828;29;20036;-82
2022/03/29 04:55:55;;;;;;;15.70;8.75;;;7.00;99.90;;;;;;4917543;29;20047;-82
2022/03/29 04:58:22;;;;;;;18.88;10.25;;;7.00;99.90;;;;;;4900962;29;20063;-83
2022/03/29 05:00:47;;;;;;;19.90;10.45;;;7.00;99.90;;;;;;4916744;29;20040;-83
2022/03/29 05:03:13;;;;;;;15.70;8.88;;;7.10;99.90;;;;;;4900955;29;20060;-83
2022/03/29 05:05:39;;;;;;;14.23;8.68;;;7.10;99.90;;;;;;4915375;29;20040;-83
2022/03/29 05:08:04;;;;;;;16.65;9.07;;;7.10;99.90;;;;;;4901615;29;20036;-82
2022/03/29 05:10:30;;;;;;;19.05;10.38;;;7.10;99.90;;;;;;4919250;29;20500;-83
2022/03/29 05:12:56;;;;;;;19.85;9.90;;;7.10;99.90;;;;;;4901771;29;20128;-83
2022/03/29 05:15:23;;;;;;;15.18;8.73;;;7.10;99.90;;;;;;4902514;29;20071;-83
2022/03/29 05:17:49;;;;;;;19.50;9.52;;;7.10;99.90;;;;;;4901754;29;20040;-83
2022/03/29 05:20:16;;;;;;;17.05;9.48;;;7.00;99.90;;;;;;4917350;29;20424;-83
2022/03/29 05:22:46;;;;;;;19.50;9.82;;;7.10;99.90;;;;;;4934334;29;20095;-83
2022/03/29 05:25:13;;;;;;;19.65;9.73;;;7.10;99.90;;;;;;4917775;29;20040;-83
2022/03/29 05:27:39;;;;;;;18.27;10.43;;;7.10;99.90;;;;;;4916562;29;20063;-82
2022/03/29 05:30:05;;;;;;;14.43;8.23;;;7.00;99.90;;;;;;4917182;29;20040;-83
2022/03/29 05:32:31;;;;;;;19.17;9.52;;;7.00;99.90;;;;;;4900083;29;20373;-83
2022/03/29 05:34:57;;;;;;;18.23;10.13;;;7.00;99.90;;;;;;4902133;29;20552;-82
2022/03/29 05:37:23;;;;;;;21.05;10.10;;;7.10;99.90;;;;;;4902509;29;20376;-83
2022/03/29 05:39:49;;;;;;;17.60;10.05;;;7.10;99.90;;;;;;4914598;29;20119;-83
2022/03/29 05:42:14;;;;;;;20.60;9.85;;;7.10;99.90;;;;;;4915418;29;20101;-83
2022/03/29 05:44:40;;;;;;;19.15;9.90;;;7.10;99.90;;;;;;4914525;29;20043;-83
2022/03/29 05:49:51;;;;;;;21.70;11.00;;;7.10;99.90;;;;;;4910483;29;20127;-83
2022/03/29 05:52:18;;;;;;;19.67;10.95;;;7.10;99.90;;;;;;4916927;29;20124;-83
2022/03/29 05:54:45;;;;;;;16.83;8.70;;;7.10;99.90;;;;;;4914744;29;20612;-82
2022/03/29 05:57:15;;;;;;;14.80;8.88;;;7.10;99.90;;;;;;4898921;29;20039;-82
2022/03/29 05:59:41;;;;;;;18.27;10.55;;;7.10;99.90;;;;;;4902916;29;20040;-82
2022/03/29 06:02:08;;;;;;;21.20;10.52;;;7.10;99.90;;;;;;4917501;29;20048;-83
2022/03/29 06:04:38;;;;;;;20.02;11.15;;;7.20;99.90;;;;;;4901308;29;20036;-83
2022/03/29 06:07:04;;;;;;;20.98;9.85;;;7.20;99.90;;;;;;4916994;29;20132;-82
2022/03/29 06:09:34;;;;;;;19.00;10.63;;;7.20;99.90;;;;;;4902887;29;20058;-82
2022/03/29 06:12:01;;;;;;;20.52;10.55;;;7.20;99.90;;;;;;4923473;29;20094;-83
2022/03/29 06:14:26;;;;;;;15.50;9.27;;;7.20;99.90;;;;;;4916866;29;20489;-82
2022/03/29 06:16:52;;;;;;;17.20;9.43;;;7.20;99.90;;;;;;4901128;29;20047;-82
2022/03/29 06:19:19;;;;;;;18.23;9.90;;;7.20;99.90;;;;;;4898557;29;20054;-84
2022/03/29 06:21:44;;;;;;;16.77;9.27;;;7.30;99.90;;;;;;4915398;29;20048;-84
2022/03/29 06:24:11;;;;;;;19.48;10.45;;;7.30;99.90;;;;;;4900965;29;20034;-83
2022/03/29 06:26:39;;;;;;;16.75;8.73;;;7.30;99.90;;;;;;4903456;29;20579;-84
2022/03/29 06:29:10;;;;;;;16.83;9.32;;;7.40;99.90;;;;;;4903600;29;20102;-84
2022/03/29 06:31:36;;;;;;;19.73;10.00;;;7.50;99.90;;;;;;4915422;29;20047;-83
2022/03/29 06:34:02;;;;;;;19.75;10.45;;;7.50;99.90;;;;;;4916345;29;20472;-84
2022/03/29 06:36:27;;;;;;;19.95;10.55;;;7.50;99.90;;;;;;4894555;29;20036;-84
2022/03/29 06:38:53;;;;;;;13.90;8.57;;;7.50;99.90;;;;;;4917801;29;20054;-84
2022/03/29 06:41:19;;;;;;;18.05;10.23;;;7.60;99.90;;;;;;4902648;29;20039;-84
2022/03/29 06:43:45;;;;;;;19.85;10.80;;;7.60;99.90;;;;;;4900013;29;20456;-84
2022/03/29 06:46:11;;;;;;;19.17;10.23;;;7.70;99.90;;;;;;4909071;29;20040;-84
2022/03/29 06:48:38;;;;;;;20.67;10.85;;;7.70;99.90;;;;;;4915809;29;20051;-84
2022/03/29 06:51:04;;;;;;;18.08;10.45;;;7.70;99.90;;;;;;4899555;29;20047;-83
2022/03/29 06:53:30;;;;;;;18.70;10.00;;;7.70;99.90;;;;;;4933243;29;20051;-83
2022/03/29 06:55:56;;;;;;;18.75;9.40;;;7.70;99.90;;;;;;4890025;29;20051;-84
2022/03/29 06:58:21;;;;;;;21.17;11.77;;;7.70;99.90;;;;;;4917054;29;20039;-84
2022/03/29 07:00:48;;;;;;;17.13;9.80;;;7.80;99.90;;;;;;4916273;29;20416;-83
2022/03/29 07:03:14;;;;;;;16.30;9.65;;;7.80;99.90;;;;;;4914201;29;20040;-84
2022/03/29 07:05:42;;;;;;;20.15;10.65;;;7.80;99.90;;;;;;4899069;29;20047;-84
2022/03/29 07:08:11;;;;;;;15.85;9.20;;;7.80;99.90;;;;;;4913959;29;20039;-84
2022/03/29 07:13:23;;;;;;;18.98;9.93;;;7.80;99.90;;;;;;4915436;29;20047;-84
2022/03/29 07:15:50;;;;;;;20.88;10.93;;;7.90;99.90;;;;;;4911882;29;20043;-84
2022/03/29 07:18:16;;;;;;;19.33;10.20;;;7.90;99.90;;;;;;4932743;29;20038;-84
2022/03/29 07:20:41;;;;;;;18.92;10.35;;;7.90;99.90;;;;;;4896729;29;20401;-84
2022/03/29 07:23:07;;;;;;;22.10;10.65;;;7.90;99.90;;;;;;4899886;29;20040;-84
2022/03/29 07:25:34;;;;;;;18.95;9.98;;;7.90;99.90;;;;;;4915445;29;20039;-84
2022/03/29 07:28:01;;;;;;;18.67;9.35;;;8.00;99.90;;;;;;4909194;29;20016;-84
2022/03/29 07:30:27;;;;;;;21.60;11.68;;;8.00;99.90;;;;;;4914005;29;20044;-84
2022/03/29 07:32:55;;;;;;;16.75;9.70;;;8.00;99.90;;;;;;4882986;29;20035;-84
2022/03/29 07:35:22;;;;;;;18.00;9.73;;;8.10;99.90;;;;;;4915402;29;20048;-84
2022/03/29 07:37:48;;;;;;;19.70;10.48;;;8.10;99.90;;;;;;4914861;29;20549;-84
2022/03/29 07:40:17;;;;;;;21.25;10.88;;;8.10;99.90;;;;;;4914513;29;20075;-84
2022/03/29 07:42:43;;;;;;;17.02;9.85;;;8.20;99.90;;;;;;4898407;29;20140;-84
2022/03/29 07:45:12;;;;;;;19.67;11.05;;;8.20;99.90;;;;;;4915579;29;20417;-85
2022/03/29 07:47:41;;;;;;;17.77;10.05;;;8.20;99.90;;;;;;4933155;29;20501;-84
2022/03/29 07:50:08;;;;;;;20.67;9.88;;;8.30;99.90;;;;;;4928281;29;20059;-84
2022/03/29 07:52:38;;;;;;;17.00;9.60;;;8.30;99.90;;;;;;4901394;29;20039;-85
2022/03/29 07:55:07;;;;;;;19.85;11.48;;;8.30;99.90;;;;;;4898450;29;20067;-84
2022/03/29 07:57:33;;;;;;;16.60;9.63;;;8.40;99.90;;;;;;4900858;29;20048;-84
2022/03/29 07:59:59;;;;;;;15.20;10.07;;;8.50;99.90;;;;;;4911474;29;20529;-84
2022/03/29 08:02:25;;;;;;;18.48;10.75;;;8.50;99.90;;;;;;4914014;29;20040;-84
2022/03/29 08:04:51;;;;;;;19.42;11.02;;;8.60;99.90;;;;;;4913955;29;20508;-85
2022/03/29 08:07:17;;;;;;;16.52;9.73;;;8.60;99.90;;;;;;4893368;29;20033;-83
2022/03/29 08:09:42;;;;;;;19.70;11.23;;;8.60;99.90;;;;;;4914793;29;20182;-84
2022/03/29 08:12:08;;;;;;;21.83;11.27;;;8.60;99.90;;;;;;4916504;29;20040;-84
2022/03/29 08:14:34;;;;;;;19.45;11.00;;;8.60;99.90;;;;;;4911167;29;20036;-84
2022/03/29 08:17:00;;;;;;;18.88;10.77;;;8.60;99.90;;;;;;4916173;29;20035;-84
2022/03/29 08:19:26;;;;;;;16.13;9.48;;;8.60;99.90;;;;;;4930515;29;20044;-84
2022/03/29 08:21:52;;;;;;;18.23;10.18;;;8.60;99.90;;;;;;4898742;29;20058;-84
2022/03/29 08:24:23;;;;;;;20.15;10.13;;;8.70;99.90;;;;;;4913031;29;20397;-84
2022/03/29 08:26:51;;;;;;;18.25;10.18;;;8.80;99.90;;;;;;4927781;29;20047;-84
2022/03/29 08:29:18;;;;;;;21.38;10.88;;;9.00;99.90;;;;;;4907317;29;20039;-84
2022/03/29 08:31:47;;;;;;;20.58;12.25;;;9.20;99.90;;;;;;4916144;29;20081;-84
2022/03/29 08:34:13;;;;;;;21.30;12.48;;;9.30;99.90;;;;;;4914033;29;20122;-84
2022/03/29 08:36:39;;;;;;;23.45;12.40;;;9.40;99.90;;;;;;4914747;29;20473;-84
2022/03/29 08:39:07;;;;;;;24.58;11.57;;;9.50;99.90;;;;;;4898093;29;20051;-84
2022/03/29 08:41:39;;;;;;;20.70;11.00;;;9.60;99.90;;;;;;4912275;29;20358;-84
2022/03/29 08:44:06;;;;;;;20.33;11.45;;;9.70;99.90;;;;;;4898445;29;20773;-84
2022/03/29 08:46:38;;;;;;;16.98;10.07;;;9.70;99.90;;;;;;4883364;29;20557;-84
2022/03/29 08:49:08;;;;;;;18.98;10.80;;;9.80;99.90;;;;;;4896167;29;20046;-84
2022/03/29 08:51:38;;;;;;;24.13;11.95;;;9.90;99.90;;;;;;4899880;29;20051;-84
2022/03/29 08:54:05;;;;;;;20.30;11.40;;;9.90;99.90;;;;;;4914857;29;20035;-84
2022/03/29 08:56:31;;;;;;;20.17;10.95;;;10.00;99.90;;;;;;4914195;29;20043;-84
2022/03/29 08:58:57;;;;;;;22.95;12.52;;;10.10;99.90;;;;;;4898752;29;20516;-84
2022/03/29 09:01:23;;;;;;;21.77;12.68;;;10.20;99.70;;;;;;4898469;29;20067;-84
2022/03/29 09:04:12;;;;;;;21.58;11.40;;;10.30;99.40;;;;;;4914401;29;20043;-84
2022/03/29 09:06:50;;;;;;;21.92;11.38;;;10.40;98.10;;;;;;4911056;29;20042;-83
2022/03/29 09:09:31;;;;;;;21.00;10.80;;;10.40;98.10;;;;;;4932045;29;20059;-83
2022/03/29 09:11:59;;;;;;;17.20;9.90;;;10.50;97.70;;;;;;4895476;29;20078;-83
2022/03/29 09:14:30;;;;;;;19.38;10.73;;;10.50;97.50;;;;;;4897287;29;20071;-84
2022/03/29 09:16:56;;;;;;;20.88;9.68;;;10.60;97.60;;;;;;4912837;29;20040;-84
2022/03/29 09:19:25;;;;;;;17.80;10.75;;;10.60;97.20;;;;;;4912243;29;20090;-84
2022/03/29 09:21:53;;;;;;;18.58;9.23;;;10.70;96.80;;;;;;4881731;29;20040;-83
2022/03/29 09:24:20;;;;;;;19.30;10.55;;;10.70;96.40;;;;;;4896144;29;20071;-84
2022/03/29 09:26:54;;;;;;;19.38;10.60;;;10.70;96.30;;;;;;4930259;29;20063;-84
2022/03/29 09:29:24;;;;;;;18.35;10.45;;;10.80;96.00;;;;;;4911299;29;20039;-84
2022/03/29 09:32:19;;;;;;;20.80;11.38;;;10.90;96.00;;;;;;4912246;29;20425;-84
2022/03/29 09:35:03;;;;;;;19.92;10.82;;;10.90;95.00;;;;;;4893972;29;20576;-84
2022/03/29 09:37:35;;;;;;;15.88;10.15;;;11.00;95.00;;;;;;4918570;29;20494;-84
2022/03/29 09:40:02;;;;;;;19.83;10.98;;;11.10;94.50;;;;;;4916469;29;20102;-83
2022/03/29 09:42:28;;;;;;;18.70;11.27;;;11.30;94.40;;;;;;4918023;29;20043;-84
2022/03/29 09:44:55;;;;;;;23.88;10.75;;;11.50;92.60;;;;;;4899521;29;20050;-84
2022/03/29 09:47:22;;;;;;;16.35;8.57;;;11.70;92.60;;;;;;4887462;29;20040;-85
2022/03/29 09:49:55;;;;;;;18.77;10.80;;;11.90;91.90;;;;;;4917507;29;20035;-85
2022/03/29 09:52:40;;;;;;;20.55;10.73;;;12.10;90.90;;;;;;4936204;29;20118;-85
2022/03/29 09:55:06;;;;;;;19.80;9.60;;;12.30;88.00;;;;;;4899517;29;20047;-84
2022/03/29 09:57:36;;;;;;;16.35;9.52;;;12.40;88.60;;;;;;4902439;29;20047;-85
2022/03/29 10:00:03;;;;;;;17.85;10.80;;;12.50;87.20;;;;;;4934110;29;20410;-85
2022/03/29 10:02:37;;;;;;;18.95;11.00;;;12.50;86.20;;;;;;4894449;29;20489;-85
2022/03/29 10:05:04;;;;;;;17.73;11.02;;;12.60;82.80;;;;;;4938509;29;20055;-85
2022/03/29 10:07:38;;;;;;;20.58;11.48;;;12.60;83.70;;;;;;4918312;29;20470;-85
2022/03/29 10:10:07;;;;;;;18.50;11.38;;;12.60;82.20;;;;;;4933940;29;20062;-85
2022/03/29 10:12:33;;;;;;;17.90;10.00;;;12.60;83.60;;;;;;4919850;29;20062;-85
2022/03/29 10:14:59;;;;;;;17.80;10.40;;;12.80;84.80;;;;;;4931190;29;20039;-85
2022/03/29 10:17:26;;;;;;;23.05;11.43;;;12.90;83.20;;;;;;4916084;29;20040;-85
2022/03/29 10:19:53;;;;;;;20.02;10.20;;;13.00;81.80;;;;;;4917619;29;20043;-85
2022/03/29 10:22:18;;;;;;;19.52;11.32;;;13.20;81.30;;;;;;4902125;29;20071;-85
2022/03/29 10:24:44;;;;;;;18.75;10.82;;;13.30;79.20;;;;;;4898452;29;20082;-85
2022/03/29 10:27:10;;;;;;;20.30;11.48;;;13.30;78.50;;;;;;4903223;29;20028;-85
2022/03/29 10:29:40;;;;;;;20.98;10.98;;;13.40;78.60;;;;;;4902399;29;20047;-84
2022/03/29 10:32:06;;;;;;;19.70;10.77;;;13.40;76.70;;;;;;4916571;29;20062;-84
2022/03/29 10:34:39;;;;;;;18.58;11.05;;;13.30;76.30;;;;;;4899608;29;20035;-85
2022/03/29 10:37:19;;;;;;;19.42;11.23;;;13.40;76.00;;;;;;4896818;29;20499;-85
2022/03/29 10:39:59;;;;;;;21.33;10.90;;;13.30;73.80;;;;;;4900007;29;21297;-85
2022/03/29 10:42:44;;;;;;;20.98;10.63;;;13.40;74.50;;;;;;4901895;29;20140;-85
2022/03/29 10:45:20;;;;;;;19.17;11.32;;;13.50;74.50;;;;;;4932321;29;20122;-85
2022/03/29 10:48:05;;;;;;;21.63;11.00;;;13.60;75.30;;;;;;4907624;29;20430;-85
2022/03/29 10:50:56;;;;;;;17.88;10.35;;;13.80;71.80;;;;;;4916327;29;20428;-85
2022/03/29 10:53:31;;;;;;;20.70;10.75;;;13.80;70.80;;;;;;4895919;29;20508;-86
2022/03/29 10:56:19;;;;;;;20.60;9.70;;;13.80;72.30;;;;;;4898085;29;20047;-85
2022/03/29 10:59:02;;;;;;;16.63;10.20;;;13.80;69.60;;;;;;4921871;29;20039;-86
2022/03/29 11:01:33;;;;;;;21.45;10.50;;;13.80;68.70;;;;;;4895330;29;20213;-85
2022/03/29 11:04:04;;;;;;;19.33;10.48;;;13.90;69.70;;;;;;4885603;29;20050;-85
2022/03/29 11:06:30;;;;;;;24.48;10.90;;;13.90;70.50;;;;;;4898114;29;20040;-85
2022/03/29 11:09:16;;;;;;;17.63;11.18;;;14.10;69.00;;;;;;4929422;29;20047;-85
2022/03/29 11:11:47;;;;;;;16.67;10.02;;;14.20;67.70;;;;;;4903516;29;20572;-85
2022/03/29 11:14:35;;;;;;;17.55;9.93;;;14.20;67.80;;;;;;4903037;29;20035;-85
2022/03/29 11:17:08;;;;;;;18.60;10.75;;;14.20;66.20;;;;;;4925033;29;20079;-85
2022/03/29 11:19:47;;;;;;;22.42;11.82;;;14.40;67.20;;;;;;4915697;29;20296;-85
2022/03/29 11:22:22;;;;;;;18.98;10.55;;;14.40;64.50;;;;;;4894846;29;20075;-85
2022/03/29 11:24:55;;;;;;;18.98;10.65;;;14.40;64.50;;;;;;4918280;29;20043;-85
2022/03/29 11:27:26;;;;;;;20.90;10.52;;;14.30;65.40;;;;;;4901894;29;20040;-85
2022/03/29 11:29:53;;;;;;;19.13;10.55;;;14.30;64.90;;;;;;4915150;29;20486;-85
2022/03/29 11:32:19;;;;;;;17.42;9.32;;;14.20;64.90;;;;;;4915878;29;20098;-85
2022/03/29 11:34:46;;;;;;;17.08;9.63;;;14.20;65.10;;;;;;4898471;29;20070;-85
2022/03/29 11:37:41;;;;;;;16.77;10.45;;;14.30;65.10;;;;;;4899781;29;20043;-85
2022/03/29 11:40:10;;;;;;;19.13;11.95;;;14.50;64.00;;;;;;4898512;29;20039;-85
2022/03/29 11:43:10;;;;;;;20.67;11.38;;;14.70;64.30;;;;;;4884570;29;20397;-85
2022/03/29 11:45:40;;;;;;;20.50;10.73;;;14.90;61.20;;;;;;4889699;29;20138;-85
2022/03/29 11:48:12;;;;;;;16.40;9.95;;;15.00;62.70;;;;;;4917456;29;20036;-85
2022/03/29 11:50:49;;;;;;;22.48;10.15;;;15.10;62.30;;;;;;4898464;29;20054;-85
2022/03/29 11:53:36;;;;;;;21.45;10.80;;;15.20;60.60;;;;;;4916200;29;20028;-86
2022/03/29 11:56:01;;;;;;;16.98;9.77;;;15.20;59.40;;;;;;4914620;29;20047;-85
2022/03/29 11:58:30;;;;;;;19.17;11.20;;;15.30;59.50;;;;;;4914222;29;20055;-85
2022/03/29 12:01:04;;;;;;;20.92;9.95;;;15.30;58.20;;;;;;4915266;29;20493;-85
2022/03/29 12:03:33;;;;;;;19.45;10.18;;;15.40;57.70;;;;;;4898240;29;20036;-85
2022/03/29 12:06:12;;;;;;;25.80;10.63;;;15.50;57.60;;;;;;4892772;29;20039;-85
2022/03/29 12:08:47;;;;;;;20.50;10.68;;;15.60;55.60;;;;;;4913673;29;20578;-86
2022/03/29 12:11:18;;;;;;;16.48;9.68;;;15.80;56.80;;;;;;4933827;29;20059;-85
2022/03/29 12:13:45;;;;;;;16.20;9.32;;;15.90;55.90;;;;;;4912788;29;20044;-85
2022/03/29 12:16:15;;;;;;;19.30;10.68;;;16.10;55.40;;;;;;4900384;29;20044;-85
2022/03/29 12:18:40;;;;;;;18.67;10.38;;;16.20;54.80;;;;;;4914598;29;20556;-85
2022/03/29 12:21:13;;;;;;;16.30;9.63;;;16.10;54.30;;;;;;4915162;29;20159;-85
2022/03/29 12:23:41;;;;;;;19.83;10.15;;;16.10;54.50;;;;;;4913056;29;20047;-85
2022/03/29 12:26:09;;;;;;;21.75;10.80;;;16.30;54.30;;;;;;4915612;29;20532;-85
2022/03/29 12:28:35;;;;;;;20.25;10.20;;;16.60;53.80;;;;;;4915101;29;20032;-86
2022/03/29 12:31:00;;;;;;;15.55;9.38;;;16.70;52.90;;;;;;4910572;29;20091;-85
2022/03/29 12:33:26;;;;;;;17.65;10.05;;;16.80;52.50;;;;;;4913550;29;20494;-84
2022/03/29 12:36:25;;;;;;;18.95;10.18;;;16.80;52.30;;;;;;4896635;29;20079;-85
2022/03/29 12:39:01;;;;;;;20.67;10.07;;;16.80;50.40;;;;;;4874260;29;20407;-85
2022/03/29 12:41:37;;;;;;;19.60;10.55;;;16.70;51.80;;;;;;4897242;29;20040;-85
2022/03/29 12:44:05;;;;;;;18.48;10.80;;;16.80;50.90;;;;;;4899403;29;20544;-85
2022/03/29 12:46:31;;;;;;;17.92;10.30;;;17.00;51.30;;;;;;4915373;29;20155;-85
2022/03/29 12:48:58;;;;;;;20.30;10.43;;;17.50;51.00;;;;;;4917289;29;20844;-84
2022/03/29 12:51:33;;;;;;;22.30;10.75;;;17.80;49.80;;;;;;4912845;29;20039;-84